Time;durP1;ratioP1;P1;durP2;ratioP2;P2;SDS_P1;SDS_P2;PMS_P1;PMS_P2;Temp;Humidity;BMP_temperature;BMP_pressure;BME280_temperature;BME280_humidity;BME280_pressure;Samples;Min_cycle;Max_cycle;Signal;HPM_P1;HPM_P2
2022/09/28 00:02:07;;;;;;;10.97;10.47;;;;;;;7.91;100.00;95093.44;4974016;28;20210;-75
2022/09/28 00:04:33;;;;;;;12.33;11.70;;;;;;;7.99;100.00;95089.56;4973547;28;20268;-75
2022/09/28 00:06:59;;;;;;;11.77;11.10;;;;;;;7.93;100.00;95086.13;4973344;28;20334;-75
2022/09/28 00:09:25;;;;;;;14.50;13.77;;;;;;;7.81;100.00;95077.69;4973641;28;20224;-76
2022/09/28 00:11:52;;;;;;;13.40;12.70;;;;;;;7.82;100.00;95076.66;4973732;28;20625;-76
2022/09/28 00:14:18;;;;;;;13.53;12.63;;;;;;;7.85;100.00;95070.97;4973819;28;20227;-76
2022/09/28 00:16:44;;;;;;;14.03;13.23;;;;;;;7.92;100.00;95063.69;4956073;28;20212;-75
2022/09/28 00:19:11;;;;;;;13.97;13.03;;;;;;;7.98;100.00;95054.84;4976029;28;20255;-75
2022/09/28 00:21:38;;;;;;;13.70;12.97;;;;;;;7.89;100.00;95057.16;4977438;28;20661;-75
2022/09/28 00:24:11;;;;;;;15.47;14.53;;;;;;;7.93;100.00;95041.78;4977475;28;20192;-75
2022/09/28 00:26:43;;;;;;;14.50;13.80;;;;;;;7.93;100.00;95042.56;4977497;28;20191;-75
2022/09/28 00:29:19;;;;;;;13.00;12.23;;;;;;;7.88;100.00;95045.16;4977195;28;20192;-75
2022/09/28 00:31:45;;;;;;;14.50;13.73;;;;;;;7.91;100.00;95028.22;4977594;28;20544;-74
2022/09/28 00:34:10;;;;;;;14.00;13.20;;;;;;;7.88;100.00;95019.06;4977091;28;20244;-75
2022/09/28 00:36:36;;;;;;;13.93;13.10;;;;;;;7.92;100.00;95019.34;4959813;28;20208;-74
2022/09/28 00:39:06;;;;;;;11.77;11.07;;;;;;;7.93;100.00;95015.69;4976189;28;20185;-74
2022/09/28 00:41:32;;;;;;;13.30;12.47;;;;;;;8.06;100.00;95010.03;4959925;28;20211;-74
2022/09/28 00:44:23;;;;;;;12.87;12.13;;;;;;;8.08;100.00;95004.56;4977111;28;20193;-75
2022/09/28 00:46:54;;;;;;;12.57;11.87;;;;;;;8.06;100.00;94997.00;4965879;28;20199;-74
2022/09/28 00:49:28;;;;;;;12.07;11.47;;;;;;;8.12;100.00;94989.97;4976336;28;20223;-74
2022/09/28 00:51:53;;;;;;;10.50;9.97;;;;;;;7.91;100.00;94979.44;4977116;28;20176;-74
2022/09/28 00:54:19;;;;;;;10.63;10.03;;;;;;;7.91;100.00;94981.28;4977329;28;20672;-74
2022/09/28 00:56:47;;;;;;;13.27;12.47;;;;;;;8.00;100.00;94979.75;4976437;28;20196;-74
2022/09/28 00:59:13;;;;;;;11.23;10.57;;;;;;;7.99;100.00;94970.34;4976340;28;20192;-75
2022/09/28 01:01:38;;;;;;;12.27;11.67;;;;;;;7.99;100.00;94949.47;4976231;28;20216;-75
2022/09/28 01:04:05;;;;;;;11.80;11.20;;;;;;;8.06;100.00;94949.25;4976689;28;20197;-74
2022/09/28 01:06:33;;;;;;;11.80;11.10;;;;;;;8.06;100.00;94947.41;4975060;28;20189;-74
2022/09/28 01:09:05;;;;;;;11.07;10.20;;;;;;;8.04;100.00;94951.31;4962264;28;20200;-74
2022/09/28 01:11:33;;;;;;;10.33;9.73;;;;;;;8.05;100.00;94945.84;4944187;28;20592;-74
2022/09/28 01:14:00;;;;;;;10.10;9.47;;;;;;;8.10;100.00;94945.06;4976854;28;20199;-74
2022/09/28 01:16:34;;;;;;;8.63;8.17;;;;;;;8.14;100.00;94940.91;4976678;28;20184;-73
2022/09/28 01:19:20;;;;;;;8.13;7.43;;;;;;;8.16;100.00;94923.97;4976719;28;20275;-74
2022/09/28 01:21:57;;;;;;;7.60;7.10;;;;;;;8.09;100.00;94920.03;4976547;28;20203;-74
2022/09/28 01:24:45;;;;;;;7.60;6.67;;;;;;;8.26;100.00;94917.97;4975429;28;20258;-74
2022/09/28 01:27:36;;;;;;;7.53;6.93;;;;;;;8.16;100.00;94903.09;4968269;28;20196;-74
2022/09/28 01:30:10;;;;;;;6.90;6.50;;;;;;;8.21;100.00;94912.75;4975986;28;20164;-75
2022/09/28 01:33:02;;;;;;;7.37;6.90;;;;;;;8.21;100.00;94899.72;4975975;28;20225;-74
2022/09/28 01:35:43;;;;;;;9.00;8.20;;;;;;;8.20;100.00;94898.91;4976081;28;20184;-74
2022/09/28 01:38:18;;;;;;;8.43;7.83;;;;;;;8.31;100.00;94894.53;4977248;28;20239;-75
2022/09/28 01:40:46;;;;;;;8.00;7.47;;;;;;;8.31;100.00;94891.91;4959346;28;20192;-74
2022/09/28 01:43:16;;;;;;;8.27;7.77;;;;;;;8.25;100.00;94891.09;4975890;28;20189;-74
2022/09/28 01:45:57;;;;;;;7.60;7.20;;;;;;;8.31;100.00;94884.88;4958463;28;20173;-74
2022/09/28 01:48:41;;;;;;;10.23;9.27;;;;;;;8.28;100.00;94879.38;4981380;28;20181;-74
2022/09/28 01:51:15;;;;;;;7.00;6.30;;;;;;;8.29;100.00;94873.13;4975768;28;20180;-74
2022/09/28 01:53:50;;;;;;;7.63;6.50;;;;;;;8.38;100.00;94868.19;4976126;28;20228;-74
2022/09/28 01:56:39;;;;;;;8.10;6.13;;;;;;;8.37;100.00;94861.41;4975732;28;20538;-74
2022/09/28 01:59:14;;;;;;;8.77;7.97;;;;;;;8.39;100.00;94857.50;4975312;28;20185;-74
2022/09/28 02:01:46;;;;;;;9.80;8.93;;;;;;;8.40;100.00;94851.22;4961978;28;20200;-75
2022/09/28 02:04:52;;;;;;;9.37;8.67;;;;;;;8.35;100.00;94861.69;4975879;28;20243;-74
2022/09/28 02:07:30;;;;;;;8.93;8.13;;;;;;;8.50;100.00;94847.84;4975682;28;20707;-74
2022/09/28 02:10:08;;;;;;;9.53;7.43;;;;;;;8.54;100.00;94838.44;4975236;28;20184;-75
2022/09/28 02:12:40;;;;;;;8.83;6.20;;;;;;;8.60;100.00;94843.41;4975644;28;20187;-74
2022/09/28 02:15:13;;;;;;;7.60;6.87;;;;;;;8.61;100.00;94831.13;4975769;28;20195;-73
2022/09/28 02:17:39;;;;;;;10.23;7.33;;;;;;;8.61;100.00;94836.34;4961014;28;20227;-74
2022/09/28 02:20:06;;;;;;;7.90;6.83;;;;;;;8.57;100.00;94832.69;4975310;28;20216;-74
2022/09/28 02:22:55;;;;;;;8.83;6.10;;;;;;;8.65;100.00;94824.34;4975611;28;20184;-75
2022/09/28 02:25:32;;;;;;;7.70;7.00;;;;;;;8.61;100.00;94825.91;4975144;28;20267;-75
2022/09/28 02:28:00;;;;;;;8.03;7.33;;;;;;;8.57;100.00;94830.09;4975138;28;20242;-75
2022/09/28 02:30:28;;;;;;;9.40;6.53;;;;;;;8.57;100.00;94822.25;4975291;28;20242;-76
2022/09/28 02:32:58;;;;;;;8.33;7.63;;;;;;;8.63;100.00;94824.63;4957214;28;20636;-75
2022/09/28 02:35:24;;;;;;;7.60;6.83;;;;;;;8.54;100.00;94813.09;4974814;28;20637;-75
2022/09/28 02:37:50;;;;;;;7.07;6.57;;;;;;;8.64;100.00;94809.69;4974818;28;20197;-74
2022/09/28 02:40:19;;;;;;;8.70;7.20;;;;;;;8.67;100.00;94806.59;4974881;28;20637;-75
2022/09/28 02:43:11;;;;;;;8.70;7.47;;;;;;;8.67;100.00;94802.16;4974319;28;20569;-76
2022/09/28 02:45:51;;;;;;;8.23;7.43;;;;;;;8.61;100.00;94808.41;4936227;28;20200;-75
2022/09/28 02:48:54;;;;;;;7.97;7.40;;;;;;;8.61;100.00;94795.34;4974590;28;20550;-75
2022/09/28 02:51:40;;;;;;;9.70;8.87;;;;;;;8.63;100.00;94792.50;4948882;28;20207;-74
2022/09/28 02:54:14;;;;;;;9.90;9.27;;;;;;;8.62;100.00;94796.16;4974910;28;20181;-75
2022/09/28 02:57:00;;;;;;;8.20;7.47;;;;;;;8.69;100.00;94794.81;4959606;28;20207;-75
2022/09/28 02:59:37;;;;;;;8.90;8.17;;;;;;;8.65;100.00;94790.38;4974257;28;20187;-75
2022/09/28 03:02:19;;;;;;;9.07;8.10;;;;;;;8.72;100.00;94781.25;4974505;28;20216;-75
2022/09/28 03:05:09;;;;;;;10.07;8.87;;;;;;;8.64;100.00;94780.97;4974246;28;20239;-75
2022/09/28 03:07:40;;;;;;;7.87;7.20;;;;;;;8.58;100.00;94779.44;4974604;28;20188;-74
2022/09/28 03:10:14;;;;;;;8.93;8.23;;;;;;;8.65;100.00;94785.16;4974584;28;20180;-75
2022/09/28 03:12:44;;;;;;;8.27;7.67;;;;;;;8.65;100.00;94785.16;4974374;28;20180;-74
2022/09/28 03:15:29;;;;;;;7.23;6.40;;;;;;;8.63;100.00;94777.59;4974399;28;20512;-75
2022/09/28 03:17:56;;;;;;;7.50;7.00;;;;;;;8.64;100.00;94784.38;4974339;28;20600;-74
2022/09/28 03:20:22;;;;;;;8.53;6.67;;;;;;;8.68;100.00;94776.81;4956915;28;20191;-75
2022/09/28 03:22:47;;;;;;;8.10;7.17;;;;;;;8.72;100.00;94777.84;4974248;28;20227;-75
2022/09/28 03:25:14;;;;;;;9.83;7.90;;;;;;;8.64;100.00;94773.94;4956749;28;20177;-75
2022/09/28 03:27:40;;;;;;;8.63;6.40;;;;;;;8.57;100.00;94768.22;4974209;28;20271;-74
2022/09/28 03:30:06;;;;;;;9.33;8.27;;;;;;;8.61;100.00;94773.69;4974136;28;20264;-74
2022/09/28 03:32:31;;;;;;;8.13;7.47;;;;;;;8.65;100.00;94769.50;4973237;28;20233;-73
2022/09/28 03:34:57;;;;;;;8.60;8.00;;;;;;;8.64;100.00;94773.94;4973019;28;20556;-73
2022/09/28 03:37:22;;;;;;;7.27;6.53;;;;;;;8.65;100.00;94770.28;4973846;28;20273;-75
2022/09/28 03:39:47;;;;;;;7.23;5.90;;;;;;;8.69;100.00;94766.09;4974038;28;20187;-75
2022/09/28 03:42:13;;;;;;;6.20;5.80;;;;;;;8.68;100.00;94771.59;4974022;28;20247;-75
2022/09/28 03:44:38;;;;;;;6.50;6.00;;;;;;;8.67;100.00;94764.78;4973717;28;20219;-74
2022/09/28 03:47:05;;;;;;;6.73;6.13;;;;;;;8.70;100.00;94766.88;4973612;28;20194;-74
2022/09/28 03:49:30;;;;;;;5.93;5.43;;;;;;;8.63;100.00;94767.16;4974432;28;20705;-75
2022/09/28 03:51:56;;;;;;;7.23;5.63;;;;;;;8.64;100.00;94765.31;4974182;28;20301;-74
2022/09/28 03:54:21;;;;;;;7.77;7.00;;;;;;;8.57;100.00;94767.44;4974165;28;20216;-75
2022/09/28 03:56:47;;;;;;;8.57;7.87;;;;;;;8.58;100.00;94764.53;4973436;28;20191;-74
2022/09/28 03:59:12;;;;;;;7.03;6.40;;;;;;;8.58;100.00;94771.63;4972898;28;20242;-74
2022/09/28 04:01:38;;;;;;;9.07;8.37;;;;;;;8.62;100.00;94767.41;4973335;28;20204;-74
2022/09/28 04:04:03;;;;;;;10.43;9.30;;;;;;;8.68;100.00;94761.16;4973704;28;20196;-74
2022/09/28 04:06:28;;;;;;;6.73;5.63;;;;;;;8.66;100.00;94763.22;4973797;28;20645;-74
2022/09/28 04:08:54;;;;;;;5.97;5.47;;;;;;;8.65;100.00;94767.66;4973193;28;20199;-73
2022/09/28 04:11:19;;;;;;;5.50;5.00;;;;;;;8.60;100.00;94772.13;4973192;28;20279;-74
2022/09/28 04:13:48;;;;;;;6.70;6.17;;;;;;;8.70;100.00;94779.94;4973481;28;20621;-75
2022/09/28 04:16:14;;;;;;;9.23;8.23;;;;;;;8.69;100.00;94786.22;4973665;28;20264;-76
2022/09/28 04:18:41;;;;;;;6.50;6.00;;;;;;;8.62;100.00;94794.31;4940201;28;20196;-77
2022/09/28 04:21:09;;;;;;;6.67;6.03;;;;;;;8.60;100.00;94796.41;4973416;28;20224;-78
2022/09/28 04:23:36;;;;;;;9.53;7.57;;;;;;;8.35;100.00;94788.59;4973728;28;20211;-77
2022/09/28 04:26:03;;;;;;;7.23;6.43;;;;;;;8.34;100.00;94793.03;4956171;28;20196;-77
2022/09/28 04:31:18;;;;;;;5.73;5.37;;;;;;;8.34;100.00;94798.25;4973221;28;20255;-77
2022/09/28 04:33:43;;;;;;;5.80;5.50;;;;;;;8.34;100.00;94793.03;4973701;28;20828;-78
2022/09/28 04:36:09;;;;;;;7.43;6.93;;;;;;;8.10;100.00;94796.38;4956211;28;20212;-78
2022/09/28 04:38:36;;;;;;;6.03;5.23;;;;;;;8.21;100.00;94790.09;4973263;28;20189;-77
2022/09/28 04:41:01;;;;;;;11.17;5.93;;;;;;;8.17;100.00;94794.28;4955595;28;20216;-77
2022/09/28 04:43:27;;;;;;;6.00;5.60;;;;;;;8.21;100.00;94792.72;4955809;28;20189;-77
2022/09/28 04:46:00;;;;;;;7.50;7.00;;;;;;;8.18;100.00;94782.81;4973407;28;20201;-77
2022/09/28 04:48:26;;;;;;;6.00;5.43;;;;;;;8.11;100.00;94809.16;4972788;28;20537;-77
2022/09/28 04:50:56;;;;;;;5.33;4.97;;;;;;;8.22;100.00;94800.28;4973468;28;20216;-77
2022/09/28 04:53:22;;;;;;;5.37;4.50;;;;;;;8.15;100.00;94807.59;4973336;28;20189;-76
2022/09/28 04:56:04;;;;;;;6.03;5.43;;;;;;;8.10;100.00;94815.41;4973214;28;20202;-78
2022/09/28 04:58:30;;;;;;;6.70;6.27;;;;;;;8.04;100.00;94810.44;4972403;28;20203;-77
2022/09/28 05:00:58;;;;;;;5.77;5.27;;;;;;;8.01;100.00;94806.53;4973014;28;20247;-77
2022/09/28 05:03:24;;;;;;;5.87;5.37;;;;;;;7.98;100.00;94806.25;4972684;28;20268;-77
2022/09/28 05:05:50;;;;;;;6.80;6.43;;;;;;;7.97;100.00;94812.53;4976533;28;20192;-77
2022/09/28 05:08:15;;;;;;;5.87;5.57;;;;;;;7.85;100.00;94805.72;4976850;28;20184;-77
2022/09/28 05:10:41;;;;;;;6.77;6.23;;;;;;;7.78;100.00;94799.97;4976296;28;20596;-76
2022/09/28 05:13:08;;;;;;;6.73;5.93;;;;;;;7.83;100.00;94805.19;4974867;28;20187;-76
2022/09/28 05:15:34;;;;;;;6.87;6.47;;;;;;;7.87;100.00;94800.25;4976598;28;20188;-76
2022/09/28 05:18:00;;;;;;;4.90;4.70;;;;;;;7.80;100.00;94794.50;4976731;28;20268;-76
2022/09/28 05:20:25;;;;;;;6.60;6.10;;;;;;;7.78;100.00;94794.75;4976436;28;20654;-77
2022/09/28 05:22:51;;;;;;;8.70;8.00;;;;;;;7.80;100.00;94800.47;4976568;28;20634;-76
2022/09/28 05:25:17;;;;;;;8.17;6.83;;;;;;;7.81;100.00;94799.44;4976105;28;20211;-76
2022/09/28 05:27:42;;;;;;;6.30;5.90;;;;;;;7.82;100.00;94811.44;4978254;28;20572;-76
2022/09/28 05:30:09;;;;;;;6.93;6.53;;;;;;;7.93;100.00;94814.84;4984963;28;20184;-75
2022/09/28 05:32:39;;;;;;;7.00;6.37;;;;;;;7.85;100.00;94818.78;4986484;28;20332;-75
2022/09/28 05:35:05;;;;;;;7.43;6.73;;;;;;;7.86;100.00;94811.69;4983057;28;20188;-77
2022/09/28 05:37:30;;;;;;;8.60;8.07;;;;;;;7.79;100.00;94811.19;4980765;28;20192;-78
2022/09/28 05:39:56;;;;;;;6.87;6.37;;;;;;;7.73;100.00;94812.22;4978334;28;20197;-77
2022/09/28 05:42:21;;;;;;;7.10;6.63;;;;;;;7.71;100.00;94809.06;4977160;28;20316;-77
2022/09/28 05:44:46;;;;;;;7.77;7.33;;;;;;;7.69;100.00;94808.56;4977599;28;20645;-77
2022/09/28 05:47:12;;;;;;;8.40;7.43;;;;;;;7.70;100.00;94808.28;4976671;28;20339;-77
2022/09/28 05:49:37;;;;;;;7.77;7.37;;;;;;;7.57;100.00;94811.38;4976768;28;20306;-77
2022/09/28 05:52:02;;;;;;;6.73;6.20;;;;;;;7.69;100.00;94811.16;4975110;28;20199;-76
2022/09/28 05:54:28;;;;;;;6.77;6.00;;;;;;;7.91;100.00;94822.19;4975981;28;20189;-77
2022/09/28 05:56:53;;;;;;;7.83;6.57;;;;;;;7.77;100.00;94823.69;4958566;28;20203;-76
2022/09/28 05:59:18;;;;;;;6.83;6.33;;;;;;;7.79;100.00;94821.63;4976939;28;20663;-77
2022/09/28 06:01:44;;;;;;;5.50;5.17;;;;;;;7.74;100.00;94829.44;4961930;28;20625;-77
2022/09/28 06:04:09;;;;;;;5.70;5.30;;;;;;;7.81;100.00;94829.94;4979542;28;20271;-76
2022/09/28 06:06:35;;;;;;;6.97;6.27;;;;;;;7.79;100.00;94835.44;4964069;28;20283;-75
2022/09/28 06:09:00;;;;;;;7.00;6.50;;;;;;;7.75;100.00;94834.38;4982268;28;20180;-76
2022/09/28 06:11:26;;;;;;;6.90;6.30;;;;;;;7.74;100.00;94832.03;4983130;28;20596;-77
2022/09/28 06:13:54;;;;;;;7.13;6.43;;;;;;;7.73;100.00;94828.66;4964523;28;20208;-78
2022/09/28 06:16:19;;;;;;;7.30;6.60;;;;;;;7.77;100.00;94834.91;4974582;28;20188;-78
2022/09/28 06:18:45;;;;;;;5.33;4.93;;;;;;;7.85;100.00;94829.22;4975545;28;20181;-77
2022/09/28 06:21:11;;;;;;;6.87;6.37;;;;;;;7.88;100.00;94827.88;4958121;28;20696;-77
2022/09/28 06:23:37;;;;;;;5.93;5.40;;;;;;;7.84;100.00;94830.25;4975310;28;20196;-77
2022/09/28 06:26:02;;;;;;;6.70;6.30;;;;;;;7.89;100.00;94838.06;4975526;28;20188;-76
2022/09/28 06:28:27;;;;;;;7.97;7.00;;;;;;;7.93;100.00;94843.56;4957734;28;20319;-76
2022/09/28 06:30:53;;;;;;;6.77;6.07;;;;;;;7.97;100.00;94846.44;4974905;28;20231;-76
2022/09/28 06:33:18;;;;;;;8.33;7.57;;;;;;;7.86;100.00;94835.19;4956998;28;20228;-76
2022/09/28 06:35:44;;;;;;;6.67;6.17;;;;;;;8.04;100.00;94852.19;4957707;28;20642;-72
2022/09/28 06:38:09;;;;;;;6.87;6.37;;;;;;;8.36;100.00;94849.41;4957304;28;20189;-73
2022/09/28 06:40:35;;;;;;;10.57;9.67;;;;;;;8.31;100.00;94850.16;4974556;28;20209;-72
2022/09/28 06:43:10;;;;;;;9.03;8.37;;;;;;;8.28;100.00;94861.09;4973886;28;20744;-73
2022/09/28 06:45:37;;;;;;;8.03;7.23;;;;;;;8.19;100.00;94863.41;4972664;28;20664;-73
2022/09/28 06:48:03;;;;;;;6.77;6.37;;;;;;;8.08;100.00;94863.69;4974566;28;20196;-73
2022/09/28 06:50:32;;;;;;;8.87;6.17;;;;;;;8.18;100.00;94869.72;4974268;28;20181;-72
2022/09/28 06:52:59;;;;;;;7.13;6.23;;;;;;;8.08;100.00;94871.50;4974802;28;20461;-73
2022/09/28 06:55:25;;;;;;;5.23;4.80;;;;;;;8.19;100.00;94873.09;4974378;28;20194;-74
2022/09/28 06:58:02;;;;;;;6.60;5.83;;;;;;;8.36;100.00;94872.91;4975334;28;20280;-75
2022/09/28 07:00:30;;;;;;;6.07;5.33;;;;;;;8.38;100.00;94878.63;4956799;28;20191;-74
2022/09/28 07:02:56;;;;;;;7.77;6.37;;;;;;;8.29;100.00;94883.56;4974584;28;20272;-73
2022/09/28 07:05:26;;;;;;;6.33;5.83;;;;;;;8.25;100.00;94883.28;4974084;28;20602;-72
2022/09/28 07:07:54;;;;;;;8.57;6.07;;;;;;;8.29;100.00;94899.22;4973608;28;20243;-73
2022/09/28 07:10:21;;;;;;;7.00;6.40;;;;;;;8.32;100.00;94902.13;4956999;28;20641;-74
2022/09/28 07:12:47;;;;;;;41.10;37.50;;;;;;;8.16;100.00;94908.31;4974131;28;20276;-74
2022/09/28 07:15:13;;;;;;;7.30;6.70;;;;;;;8.14;100.00;94918.22;4956831;28;20263;-74
2022/09/28 07:17:38;;;;;;;8.67;7.80;;;;;;;8.06;100.00;94915.34;4974400;28;20287;-73
2022/09/28 07:20:04;;;;;;;9.17;7.43;;;;;;;8.13;100.00;94928.94;4973850;28;20215;-73
2022/09/28 07:22:29;;;;;;;9.83;8.93;;;;;;;8.16;100.00;94923.97;4956797;28;20232;-74
2022/09/28 07:24:56;;;;;;;7.77;7.07;;;;;;;8.19;100.00;94923.44;4974150;28;20268;-75
2022/09/28 07:27:22;;;;;;;7.67;6.83;;;;;;;8.30;100.00;94930.28;4973558;28;20181;-74
2022/09/28 07:29:47;;;;;;;10.80;7.23;;;;;;;8.30;100.00;94926.91;4974127;28;20204;-75
2022/09/28 07:32:12;;;;;;;7.57;6.67;;;;;;;8.41;100.00;94927.72;4973618;28;20314;-74
2022/09/28 07:34:43;;;;;;;7.40;6.80;;;;;;;8.41;100.00;94938.94;4973854;28;20169;-73
2022/09/28 07:37:10;;;;;;;7.20;6.50;;;;;;;8.38;100.00;94941.28;4974155;28;20277;-75
2022/09/28 07:41:10;;;;;;;8.93;7.17;;;;;;;8.50;100.00;94942.63;4956368;28;20180;-74
2022/09/28 07:42:22;;;;;;;8.70;7.80;;;;;;;8.52;100.00;94950.97;4973039;28;20299;-74
2022/09/28 07:44:47;;;;;;;7.77;7.07;;;;;;;8.63;100.00;94952.56;4954031;28;20267;-73
2022/09/28 07:47:13;;;;;;;7.40;6.77;;;;;;;8.69;100.00;94953.38;4973571;28;20522;-74
2022/09/28 07:49:38;;;;;;;8.90;8.30;;;;;;;8.66;100.00;94951.25;4973969;28;20192;-74
2022/09/28 07:52:03;;;;;;;6.73;6.13;;;;;;;8.61;100.00;94959.06;4973002;28;20181;-74
2022/09/28 07:54:30;;;;;;;7.30;6.67;;;;;;;8.69;100.00;94951.50;4956471;28;20196;-74
2022/09/28 07:56:55;;;;;;;6.00;5.33;;;;;;;9.06;100.00;94958.34;4974080;28;20180;-74
2022/09/28 07:59:21;;;;;;;6.60;5.97;;;;;;;9.09;100.00;94957.81;4973103;28;20707;-73
2022/09/28 08:01:48;;;;;;;5.97;5.30;;;;;;;9.17;100.00;94968.53;4973232;28;20662;-73
2022/09/28 08:04:14;;;;;;;6.30;5.80;;;;;;;9.14;100.00;94963.81;4973673;28;20242;-74
2022/09/28 08:06:39;;;;;;;6.97;6.57;;;;;;;9.33;100.00;94960.66;4972694;28;20189;-73
2022/09/28 08:09:05;;;;;;;13.60;12.53;;;;;;;9.57;100.00;94969.53;4973373;28;20208;-74
2022/09/28 08:11:30;;;;;;;12.20;11.30;;;;;;;9.48;100.00;94963.25;4957361;28;20186;-73
2022/09/28 08:13:56;;;;;;;7.83;7.33;;;;;;;9.56;100.00;94973.19;4972283;28;20195;-74
2022/09/28 08:16:22;;;;;;;10.00;9.30;;;;;;;9.59;100.00;94977.88;4955712;28;20184;-74
2022/09/28 08:18:48;;;;;;;8.03;7.43;;;;;;;9.52;100.00;94985.25;4973323;28;20517;-74
2022/09/28 08:23:58;;;;;;;8.63;8.13;;;;;;;9.49;100.00;94991.78;4972973;28;20594;-74
2022/09/28 08:26:24;;;;;;;9.60;8.80;;;;;;;9.53;100.00;94995.41;4973414;28;20184;-75
2022/09/28 08:28:50;;;;;;;7.07;6.47;;;;;;;9.50;100.00;94995.16;4972442;28;20550;-75
2022/09/28 08:31:15;;;;;;;8.47;7.87;;;;;;;9.32;100.00;95001.72;4963762;28;20181;-76
2022/09/28 08:33:41;;;;;;;9.53;8.27;;;;;;;9.25;100.00;95010.88;4971326;28;20228;-75
2022/09/28 08:36:08;;;;;;;8.97;8.27;;;;;;;9.55;100.00;94992.53;4973777;28;20181;-75
2022/09/28 08:38:34;;;;;;;9.93;9.20;;;;;;;9.69;100.00;94996.19;4968919;28;20490;-75
2022/09/28 08:41:13;;;;;;;10.10;9.30;;;;;;;9.91;100.00;95004.53;4957830;29;20193;-75
2022/09/28 08:43:50;;;;;;;9.90;9.30;;;;;;;9.91;100.00;95003.75;4965218;28;20216;-75
2022/09/28 08:46:19;;;;;;;12.50;11.77;;;;;;;10.25;100.00;95002.06;4959356;28;20798;-75
2022/09/28 08:48:59;;;;;;;11.23;10.57;;;;;;;10.22;100.00;95007.84;4974423;28;20220;-75
2022/09/28 08:51:49;;;;;;;9.93;9.17;;;;;;;9.97;100.00;95005.28;4968156;28;20582;-75
2022/09/28 08:54:35;;;;;;;10.37;9.80;;;;;;;10.48;100.00;95016.38;4977011;28;20180;-75
2022/09/28 08:57:05;;;;;;;9.30;8.80;;;;;;;10.35;100.00;95011.75;4959631;28;20173;-75
2022/09/28 08:59:58;;;;;;;9.33;8.63;;;;;;;10.23;100.00;95025.13;4976173;28;20193;-75
2022/09/28 09:02:33;;;;;;;9.80;9.13;;;;;;;9.79;100.00;95026.78;4975787;28;20311;-74
2022/09/28 09:05:04;;;;;;;7.93;7.27;;;;;;;9.69;100.00;95024.97;4975947;28;20641;-72
2022/09/28 09:07:41;;;;;;;12.90;11.80;;;;;;;9.57;100.00;95035.72;4967319;28;20553;-72
2022/09/28 09:10:12;;;;;;;10.73;10.00;;;;;;;9.70;100.00;95028.34;4957333;29;20173;-73
2022/09/28 09:12:58;;;;;;;9.10;8.50;;;;;;;9.59;100.00;95038.81;4957385;29;20185;-75
2022/09/28 09:15:32;;;;;;;9.07;8.43;;;;;;;9.98;100.00;95033.00;4957269;29;20177;-72
2022/09/28 09:18:00;;;;;;;9.50;8.90;;;;;;;10.04;100.00;95034.56;4957075;29;20177;-74
2022/09/28 09:20:43;;;;;;;8.50;7.87;;;;;;;10.15;100.00;95032.72;4957124;29;20280;-74
2022/09/28 09:23:14;;;;;;;8.50;7.83;;;;;;;10.16;100.00;95040.31;4957323;29;20332;-74
2022/09/28 09:25:44;;;;;;;8.90;8.30;;;;;;;10.44;100.00;95044.16;4957180;29;20184;-74
2022/09/28 09:28:47;;;;;;;7.87;7.37;;;;;;;10.92;100.00;95045.25;4956555;28;20268;-74
2022/09/28 09:31:27;;;;;;;6.13;5.63;;;;;;;10.52;100.00;95055.94;4956303;28;20228;-74
2022/09/28 09:34:11;;;;;;;6.33;5.83;;;;;;;10.39;100.00;95058.06;4973010;28;20236;-74
2022/09/28 09:37:00;;;;;;;6.70;6.07;;;;;;;10.21;100.00;95056.03;4979339;28;20234;-74
2022/09/28 09:39:32;;;;;;;10.60;9.80;;;;;;;10.30;100.00;95059.69;4960093;28;20197;-73
2022/09/28 09:42:04;;;;;;;9.47;8.83;;;;;;;10.30;100.00;95059.69;4976768;28;20193;-73
2022/09/28 09:44:29;;;;;;;11.27;10.53;;;;;;;10.60;100.00;95064.00;4977160;28;20177;-73
2022/09/28 09:46:58;;;;;;;11.53;10.77;;;;;;;10.79;100.00;95075.47;4976202;28;20584;-73
2022/09/28 09:49:30;;;;;;;15.27;14.37;;;;;;;10.70;100.00;95066.56;4975947;28;20219;-73
2022/09/28 09:52:05;;;;;;;13.50;12.60;;;;;;;10.59;100.00;95075.53;4975641;28;20212;-73
2022/09/28 09:54:43;;;;;;;10.03;9.37;;;;;;;10.77;100.00;95071.53;4976121;28;20180;-72
2022/09/28 09:57:18;;;;;;;9.40;8.80;;;;;;;10.57;100.00;95079.47;4975651;28;20181;-73
2022/09/28 09:59:45;;;;;;;9.73;9.03;;;;;;;10.84;100.00;95082.50;4975011;28;20271;-74
2022/09/28 10:02:26;;;;;;;13.43;12.40;;;;;;;10.96;100.00;95082.97;4973907;28;20576;-74
2022/09/28 10:05:01;;;;;;;8.67;8.03;;;;;;;11.06;100.00;95082.13;4975097;28;20271;-73
2022/09/28 10:07:43;;;;;;;11.73;11.13;;;;;;;11.29;100.00;95081.47;4965205;28;20183;-74
2022/09/28 10:10:20;;;;;;;8.47;7.77;;;;;;;11.71;100.00;95087.97;4974806;28;20192;-73
2022/09/28 10:12:47;;;;;;;9.90;9.07;;;;;;;11.57;99.14;95080.75;4975384;28;20185;-73
2022/09/28 10:15:17;;;;;;;19.67;18.33;;;;;;;11.48;99.30;95073.75;4972317;28;20189;-73
2022/09/28 10:17:43;;;;;;;21.13;19.70;;;;;;;11.18;99.73;95078.13;4971218;28;20192;-74
2022/09/28 10:20:14;;;;;;;15.40;14.50;;;;;;;11.32;98.57;95067.78;4974777;28;20293;-74
2022/09/28 10:22:41;;;;;;;32.33;30.57;;;;;;;11.48;100.00;95066.63;4975111;28;20218;-73
2022/09/28 10:25:08;;;;;;;26.97;25.43;;;;;;;11.58;100.00;95068.41;4974686;28;20193;-74
2022/09/28 10:27:37;;;;;;;14.83;14.00;;;;;;;11.83;98.87;95062.19;4974640;28;20199;-73
2022/09/28 10:30:03;;;;;;;11.97;11.20;;;;;;;11.32;100.00;95067.00;4974063;28;20184;-73
2022/09/28 10:32:46;;;;;;;21.83;20.53;;;;;;;11.67;98.05;95064.13;4974876;28;20233;-73
2022/09/28 10:35:17;;;;;;;13.17;12.47;;;;;;;11.65;99.61;95069.66;4974743;28;20184;-73
2022/09/28 10:38:03;;;;;;;12.90;12.03;;;;;;;11.85;98.74;95071.34;4974341;28;20240;-73
2022/09/28 10:40:31;;;;;;;13.97;12.90;;;;;;;11.53;99.41;95077.09;4974341;28;20508;-74
2022/09/28 10:43:01;;;;;;;11.77;11.13;;;;;;;11.50;98.09;95072.41;4974862;28;20189;-72
2022/09/28 10:45:34;;;;;;;11.33;10.53;;;;;;;11.70;95.93;95074.09;4974255;28;20216;-72
2022/09/28 10:48:03;;;;;;;12.33;11.43;;;;;;;11.66;95.96;95073.84;4974299;28;20204;-71
2022/09/28 10:50:29;;;;;;;7.70;7.03;;;;;;;11.97;96.91;95073.63;4974318;28;20185;-73
2022/09/28 10:53:10;;;;;;;9.63;8.93;;;;;;;11.85;96.14;95068.72;4974877;28;20300;-72
2022/09/28 10:55:35;;;;;;;8.50;8.00;;;;;;;11.71;95.46;95078.25;4966405;28;20193;-72
2022/09/28 10:58:23;;;;;;;11.27;10.50;;;;;;;12.02;94.60;95071.72;4972752;28;20179;-72
2022/09/28 11:00:49;;;;;;;9.33;8.73;;;;;;;11.92;94.15;95071.03;4974577;28;20204;-73
2022/09/28 11:03:26;;;;;;;16.80;15.77;;;;;;;11.83;92.45;95068.22;4973460;28;20596;-73
2022/09/28 11:06:12;;;;;;;15.87;14.70;;;;;;;11.95;91.43;95070.47;4970930;28;20276;-72
2022/09/28 11:08:40;;;;;;;10.60;10.00;;;;;;;11.97;94.16;95077.03;4955919;28;20589;-72
2022/09/28 11:11:11;;;;;;;15.10;14.03;;;;;;;11.84;95.13;95069.78;4973745;28;20662;-72
2022/09/28 11:13:42;;;;;;;11.33;10.57;;;;;;;11.76;91.04;95069.63;4973898;28;20185;-72
2022/09/28 11:16:23;;;;;;;15.07;14.27;;;;;;;11.64;89.31;95070.72;4974035;28;20180;-73
2022/09/28 11:18:49;;;;;;;8.27;7.47;;;;;;;11.84;91.90;95067.16;4974203;28;20279;-72
2022/09/28 11:21:21;;;;;;;8.87;8.20;;;;;;;11.91;90.93;95069.47;4973749;28;20690;-73
2022/09/28 11:24:00;;;;;;;14.23;13.13;;;;;;;11.66;91.25;95062.56;4973676;28;20638;-74
2022/09/28 11:26:33;;;;;;;8.93;8.43;;;;;;;11.96;91.05;95064.16;4973674;28;20189;-72
2022/09/28 11:28:58;;;;;;;9.33;8.73;;;;;;;11.85;90.39;95071.34;4972953;28;20181;-72
2022/09/28 11:31:27;;;;;;;11.27;10.47;;;;;;;11.62;90.42;95059.72;4963190;28;20181;-73
2022/09/28 11:34:25;;;;;;;9.50;8.80;;;;;;;11.78;90.74;95062.22;4973055;28;20232;-74
2022/09/28 11:37:05;;;;;;;17.97;16.87;;;;;;;11.89;89.09;95068.94;4972788;28;20184;-73
2022/09/28 11:39:53;;;;;;;11.43;10.53;;;;;;;12.18;87.01;95064.47;4973713;28;20189;-73
2022/09/28 11:42:51;;;;;;;16.70;15.63;;;;;;;11.93;83.96;95060.25;4973447;28;20626;-72
2022/09/28 11:45:43;;;;;;;23.60;21.63;;;;;;;12.04;85.10;95060.94;4940560;28;20224;-70
2022/09/28 11:48:21;;;;;;;16.77;15.83;;;;;;;12.22;80.82;95064.69;4972965;28;20176;-71
2022/09/28 11:51:07;;;;;;;16.60;15.60;;;;;;;12.35;80.78;95061.41;4962915;28;20188;-71
2022/09/28 11:53:49;;;;;;;22.73;21.53;;;;;;;12.16;81.62;95055.28;4965494;28;20176;-70